sensor_id;sensor_type;location;lat;lon;timestamp;P1;durP1;ratioP1;P2;durP2;ratioP2
16179;SDS011;8196;49.428;10.906;2023-07-08T00:01:11;6.30;;;4.68;;
16179;SDS011;8196;49.428;10.906;2023-07-08T00:03:40;7.65;;;5.18;;
16179;SDS011;8196;49.428;10.906;2023-07-08T00:06:09;6.68;;;5.18;;
16179;SDS011;8196;49.428;10.906;2023-07-08T00:08:37;6.43;;;4.82;;
16179;SDS011;8196;49.428;10.906;2023-07-08T00:11:08;7.20;;;5.20;;
16179;SDS011;8196;49.428;10.906;2023-07-08T00:13:35;9.38;;;5.43;;
16179;SDS011;8196;49.428;10.906;2023-07-08T00:16:03;6.77;;;5.23;;
16179;SDS011;8196;49.428;10.906;2023-07-08T00:18:30;6.60;;;5.20;;
16179;SDS011;8196;49.428;10.906;2023-07-08T00:20:57;6.65;;;5.18;;
16179;SDS011;8196;49.428;10.906;2023-07-08T00:23:26;9.17;;;5.13;;
16179;SDS011;8196;49.428;10.906;2023-07-08T00:25:53;7.32;;;5.45;;
16179;SDS011;8196;49.428;10.906;2023-07-08T00:28:20;7.90;;;5.43;;
16179;SDS011;8196;49.428;10.906;2023-07-08T00:30:48;7.10;;;5.38;;
16179;SDS011;8196;49.428;10.906;2023-07-08T00:33:15;5.97;;;5.00;;
16179;SDS011;8196;49.428;10.906;2023-07-08T00:35:43;8.00;;;5.47;;
16179;SDS011;8196;49.428;10.906;2023-07-08T00:38:14;7.45;;;5.63;;
16179;SDS011;8196;49.428;10.906;2023-07-08T00:40:50;7.32;;;5.28;;
16179;SDS011;8196;49.428;10.906;2023-07-08T00:43:19;7.27;;;5.07;;
16179;SDS011;8196;49.428;10.906;2023-07-08T00:45:49;8.13;;;5.50;;
16179;SDS011;8196;49.428;10.906;2023-07-08T00:48:29;8.75;;;5.30;;
16179;SDS011;8196;49.428;10.906;2023-07-08T00:50:57;8.05;;;6.03;;
16179;SDS011;8196;49.428;10.906;2023-07-08T00:53:31;7.57;;;5.32;;
16179;SDS011;8196;49.428;10.906;2023-07-08T00:56:08;7.50;;;5.40;;
16179;SDS011;8196;49.428;10.906;2023-07-08T00:58:39;6.85;;;5.28;;
16179;SDS011;8196;49.428;10.906;2023-07-08T01:01:10;8.47;;;5.50;;
16179;SDS011;8196;49.428;10.906;2023-07-08T01:03:42;6.80;;;4.72;;
16179;SDS011;8196;49.428;10.906;2023-07-08T01:06:12;6.35;;;5.05;;
16179;SDS011;8196;49.428;10.906;2023-07-08T01:08:39;6.30;;;5.05;;
16179;SDS011;8196;49.428;10.906;2023-07-08T01:11:06;7.68;;;5.63;;
16179;SDS011;8196;49.428;10.906;2023-07-08T01:13:35;7.03;;;4.88;;
16179;SDS011;8196;49.428;10.906;2023-07-08T01:16:04;6.88;;;5.45;;
16179;SDS011;8196;49.428;10.906;2023-07-08T01:18:31;6.85;;;5.30;;
16179;SDS011;8196;49.428;10.906;2023-07-08T01:21:00;8.80;;;5.80;;
16179;SDS011;8196;49.428;10.906;2023-07-08T01:23:33;6.20;;;5.18;;
16179;SDS011;8196;49.428;10.906;2023-07-08T01:26:01;7.50;;;5.07;;
16179;SDS011;8196;49.428;10.906;2023-07-08T01:28:28;7.65;;;5.63;;
16179;SDS011;8196;49.428;10.906;2023-07-08T01:30:56;7.65;;;5.13;;
16179;SDS011;8196;49.428;10.906;2023-07-08T01:33:24;6.95;;;5.40;;
16179;SDS011;8196;49.428;10.906;2023-07-08T01:35:51;7.75;;;5.40;;
16179;SDS011;8196;49.428;10.906;2023-07-08T01:38:21;8.05;;;5.55;;
16179;SDS011;8196;49.428;10.906;2023-07-08T01:40:51;7.35;;;5.53;;
16179;SDS011;8196;49.428;10.906;2023-07-08T01:43:19;6.18;;;5.20;;
16179;SDS011;8196;49.428;10.906;2023-07-08T01:45:46;6.15;;;5.15;;
16179;SDS011;8196;49.428;10.906;2023-07-08T01:48:15;6.10;;;5.33;;
16179;SDS011;8196;49.428;10.906;2023-07-08T01:50:47;7.07;;;5.13;;
16179;SDS011;8196;49.428;10.906;2023-07-08T01:53:18;7.25;;;5.63;;
16179;SDS011;8196;49.428;10.906;2023-07-08T01:55:46;6.25;;;5.63;;
16179;SDS011;8196;49.428;10.906;2023-07-08T01:58:13;6.93;;;5.30;;
16179;SDS011;8196;49.428;10.906;2023-07-08T02:00:40;7.13;;;5.53;;
16179;SDS011;8196;49.428;10.906;2023-07-08T02:03:08;6.95;;;5.38;;
16179;SDS011;8196;49.428;10.906;2023-07-08T02:05:36;7.78;;;5.60;;
16179;SDS011;8196;49.428;10.906;2023-07-08T02:08:03;6.25;;;5.38;;
16179;SDS011;8196;49.428;10.906;2023-07-08T02:10:31;6.35;;;5.03;;
16179;SDS011;8196;49.428;10.906;2023-07-08T02:12:58;7.40;;;5.60;;
16179;SDS011;8196;49.428;10.906;2023-07-08T02:15:25;7.15;;;6.00;;
16179;SDS011;8196;49.428;10.906;2023-07-08T02:17:52;6.93;;;5.57;;
16179;SDS011;8196;49.428;10.906;2023-07-08T02:20:20;8.70;;;5.75;;
16179;SDS011;8196;49.428;10.906;2023-07-08T02:22:47;7.93;;;5.70;;
16179;SDS011;8196;49.428;10.906;2023-07-08T02:25:14;8.05;;;5.72;;
16179;SDS011;8196;49.428;10.906;2023-07-08T02:27:42;8.70;;;5.70;;
16179;SDS011;8196;49.428;10.906;2023-07-08T02:30:09;7.43;;;6.05;;
16179;SDS011;8196;49.428;10.906;2023-07-08T02:32:36;8.80;;;6.05;;
16179;SDS011;8196;49.428;10.906;2023-07-08T02:35:05;7.80;;;6.15;;
16179;SDS011;8196;49.428;10.906;2023-07-08T02:37:33;9.25;;;6.53;;
16179;SDS011;8196;49.428;10.906;2023-07-08T02:40:00;9.35;;;6.15;;
16179;SDS011;8196;49.428;10.906;2023-07-08T02:42:27;10.73;;;6.80;;
16179;SDS011;8196;49.428;10.906;2023-07-08T02:44:54;7.25;;;5.82;;
16179;SDS011;8196;49.428;10.906;2023-07-08T02:47:22;8.00;;;6.50;;
16179;SDS011;8196;49.428;10.906;2023-07-08T02:49:49;7.63;;;6.22;;
16179;SDS011;8196;49.428;10.906;2023-07-08T02:52:16;9.35;;;6.55;;
16179;SDS011;8196;49.428;10.906;2023-07-08T02:54:44;8.50;;;6.35;;
16179;SDS011;8196;49.428;10.906;2023-07-08T02:57:11;7.78;;;6.30;;
16179;SDS011;8196;49.428;10.906;2023-07-08T02:59:38;9.27;;;6.53;;
16179;SDS011;8196;49.428;10.906;2023-07-08T03:02:05;9.32;;;5.95;;
16179;SDS011;8196;49.428;10.906;2023-07-08T03:04:32;7.37;;;6.03;;
16179;SDS011;8196;49.428;10.906;2023-07-08T03:07:01;7.38;;;5.72;;
16179;SDS011;8196;49.428;10.906;2023-07-08T03:09:28;8.30;;;5.78;;
16179;SDS011;8196;49.428;10.906;2023-07-08T03:11:55;8.40;;;5.80;;
16179;SDS011;8196;49.428;10.906;2023-07-08T03:14:22;8.63;;;5.85;;
16179;SDS011;8196;49.428;10.906;2023-07-08T03:16:50;6.87;;;6.17;;
16179;SDS011;8196;49.428;10.906;2023-07-08T03:19:17;9.35;;;6.63;;
16179;SDS011;8196;49.428;10.906;2023-07-08T03:21:44;7.70;;;6.72;;
16179;SDS011;8196;49.428;10.906;2023-07-08T03:24:11;10.23;;;6.50;;
16179;SDS011;8196;49.428;10.906;2023-07-08T03:26:39;9.77;;;6.25;;
16179;SDS011;8196;49.428;10.906;2023-07-08T03:29:07;9.10;;;6.70;;
16179;SDS011;8196;49.428;10.906;2023-07-08T03:31:35;7.65;;;6.10;;
16179;SDS011;8196;49.428;10.906;2023-07-08T03:34:03;9.32;;;6.65;;
16179;SDS011;8196;49.428;10.906;2023-07-08T03:36:30;7.47;;;6.38;;
16179;SDS011;8196;49.428;10.906;2023-07-08T03:38:57;8.63;;;6.53;;
16179;SDS011;8196;49.428;10.906;2023-07-08T03:41:26;8.32;;;6.43;;
16179;SDS011;8196;49.428;10.906;2023-07-08T03:43:53;8.63;;;6.45;;
16179;SDS011;8196;49.428;10.906;2023-07-08T03:46:20;8.43;;;6.37;;
16179;SDS011;8196;49.428;10.906;2023-07-08T03:48:49;8.40;;;6.53;;
16179;SDS011;8196;49.428;10.906;2023-07-08T03:51:19;8.52;;;6.65;;
16179;SDS011;8196;49.428;10.906;2023-07-08T03:53:47;8.68;;;6.43;;
16179;SDS011;8196;49.428;10.906;2023-07-08T03:56:14;10.32;;;6.28;;
16179;SDS011;8196;49.428;10.906;2023-07-08T03:58:41;10.02;;;6.75;;
16179;SDS011;8196;49.428;10.906;2023-07-08T04:01:13;8.63;;;6.65;;
16179;SDS011;8196;49.428;10.906;2023-07-08T04:03:42;8.57;;;6.53;;
16179;SDS011;8196;49.428;10.906;2023-07-08T04:06:09;9.30;;;7.03;;
16179;SDS011;8196;49.428;10.906;2023-07-08T04:08:37;7.97;;;6.47;;
16179;SDS011;8196;49.428;10.906;2023-07-08T04:11:04;9.48;;;6.90;;
16179;SDS011;8196;49.428;10.906;2023-07-08T04:13:31;8.70;;;6.30;;
16179;SDS011;8196;49.428;10.906;2023-07-08T04:15:59;8.63;;;7.03;;
16179;SDS011;8196;49.428;10.906;2023-07-08T04:18:28;8.48;;;6.63;;
16179;SDS011;8196;49.428;10.906;2023-07-08T04:20:55;8.38;;;6.35;;
16179;SDS011;8196;49.428;10.906;2023-07-08T04:23:25;9.18;;;7.00;;
16179;SDS011;8196;49.428;10.906;2023-07-08T04:25:53;9.77;;;6.63;;
16179;SDS011;8196;49.428;10.906;2023-07-08T04:28:22;9.85;;;6.65;;
16179;SDS011;8196;49.428;10.906;2023-07-08T04:30:49;7.47;;;6.55;;
16179;SDS011;8196;49.428;10.906;2023-07-08T04:33:17;8.15;;;6.68;;
16179;SDS011;8196;49.428;10.906;2023-07-08T04:35:44;8.95;;;6.68;;
16179;SDS011;8196;49.428;10.906;2023-07-08T04:38:20;9.60;;;6.72;;
16179;SDS011;8196;49.428;10.906;2023-07-08T04:40:48;8.77;;;6.28;;
16179;SDS011;8196;49.428;10.906;2023-07-08T04:43:17;8.70;;;6.85;;
16179;SDS011;8196;49.428;10.906;2023-07-08T04:45:45;7.45;;;6.63;;
16179;SDS011;8196;49.428;10.906;2023-07-08T04:48:13;9.35;;;6.85;;
16179;SDS011;8196;49.428;10.906;2023-07-08T04:50:41;8.63;;;6.30;;
16179;SDS011;8196;49.428;10.906;2023-07-08T04:53:09;7.78;;;6.70;;
16179;SDS011;8196;49.428;10.906;2023-07-08T04:55:39;10.23;;;6.82;;
16179;SDS011;8196;49.428;10.906;2023-07-08T04:58:08;7.30;;;6.22;;
16179;SDS011;8196;49.428;10.906;2023-07-08T05:00:34;7.70;;;6.10;;
16179;SDS011;8196;49.428;10.906;2023-07-08T05:03:02;9.20;;;6.38;;
16179;SDS011;8196;49.428;10.906;2023-07-08T05:05:29;10.02;;;6.68;;
16179;SDS011;8196;49.428;10.906;2023-07-08T05:07:56;8.27;;;6.63;;
16179;SDS011;8196;49.428;10.906;2023-07-08T05:10:23;10.00;;;6.90;;
16179;SDS011;8196;49.428;10.906;2023-07-08T05:12:51;8.73;;;6.83;;
16179;SDS011;8196;49.428;10.906;2023-07-08T05:15:18;8.23;;;6.60;;
16179;SDS011;8196;49.428;10.906;2023-07-08T05:17:45;8.75;;;6.95;;
16179;SDS011;8196;49.428;10.906;2023-07-08T05:20:13;8.60;;;6.75;;
16179;SDS011;8196;49.428;10.906;2023-07-08T05:22:40;9.40;;;6.63;;
16179;SDS011;8196;49.428;10.906;2023-07-08T05:25:09;8.70;;;6.40;;
16179;SDS011;8196;49.428;10.906;2023-07-08T05:27:36;7.85;;;6.20;;
16179;SDS011;8196;49.428;10.906;2023-07-08T05:30:04;8.82;;;6.53;;
16179;SDS011;8196;49.428;10.906;2023-07-08T05:32:32;8.32;;;6.38;;
16179;SDS011;8196;49.428;10.906;2023-07-08T05:34:59;8.65;;;6.32;;
16179;SDS011;8196;49.428;10.906;2023-07-08T05:37:26;6.82;;;6.05;;
16179;SDS011;8196;49.428;10.906;2023-07-08T05:39:55;8.18;;;6.47;;
16179;SDS011;8196;49.428;10.906;2023-07-08T05:42:22;7.50;;;6.30;;
16179;SDS011;8196;49.428;10.906;2023-07-08T05:44:50;7.00;;;6.07;;
16179;SDS011;8196;49.428;10.906;2023-07-08T05:47:18;7.33;;;6.30;;
16179;SDS011;8196;49.428;10.906;2023-07-08T05:49:45;8.35;;;5.85;;
16179;SDS011;8196;49.428;10.906;2023-07-08T05:52:12;7.82;;;6.00;;
16179;SDS011;8196;49.428;10.906;2023-07-08T05:54:40;6.68;;;5.68;;
16179;SDS011;8196;49.428;10.906;2023-07-08T05:57:08;6.93;;;5.82;;
16179;SDS011;8196;49.428;10.906;2023-07-08T05:59:36;8.20;;;5.82;;
16179;SDS011;8196;49.428;10.906;2023-07-08T06:02:05;7.63;;;5.50;;
16179;SDS011;8196;49.428;10.906;2023-07-08T06:04:32;5.73;;;5.00;;
16179;SDS011;8196;49.428;10.906;2023-07-08T06:06:59;6.65;;;5.35;;
16179;SDS011;8196;49.428;10.906;2023-07-08T06:09:27;8.27;;;5.13;;
16179;SDS011;8196;49.428;10.906;2023-07-08T06:11:54;8.18;;;5.10;;
16179;SDS011;8196;49.428;10.906;2023-07-08T06:14:21;8.00;;;5.20;;
16179;SDS011;8196;49.428;10.906;2023-07-08T06:16:48;7.70;;;5.10;;
16179;SDS011;8196;49.428;10.906;2023-07-08T06:19:16;7.88;;;4.90;;
16179;SDS011;8196;49.428;10.906;2023-07-08T06:21:43;6.40;;;5.00;;
16179;SDS011;8196;49.428;10.906;2023-07-08T06:24:10;6.72;;;4.82;;
16179;SDS011;8196;49.428;10.906;2023-07-08T06:26:37;6.43;;;4.82;;
16179;SDS011;8196;49.428;10.906;2023-07-08T06:29:05;7.45;;;4.68;;
16179;SDS011;8196;49.428;10.906;2023-07-08T06:31:32;6.65;;;5.03;;
16179;SDS011;8196;49.428;10.906;2023-07-08T06:36:26;6.47;;;4.88;;
16179;SDS011;8196;49.428;10.906;2023-07-08T06:38:54;6.25;;;5.20;;
16179;SDS011;8196;49.428;10.906;2023-07-08T06:41:21;5.35;;;4.55;;
16179;SDS011;8196;49.428;10.906;2023-07-08T06:43:48;7.57;;;4.82;;
16179;SDS011;8196;49.428;10.906;2023-07-08T06:46:16;7.78;;;4.93;;
16179;SDS011;8196;49.428;10.906;2023-07-08T06:48:45;5.55;;;4.47;;
16179;SDS011;8196;49.428;10.906;2023-07-08T06:51:12;5.83;;;4.07;;
16179;SDS011;8196;49.428;10.906;2023-07-08T06:53:39;5.88;;;4.40;;
16179;SDS011;8196;49.428;10.906;2023-07-08T06:56:07;6.38;;;4.40;;
16179;SDS011;8196;49.428;10.906;2023-07-08T06:58:34;5.37;;;4.27;;
16179;SDS011;8196;49.428;10.906;2023-07-08T07:01:01;7.43;;;4.47;;
16179;SDS011;8196;49.428;10.906;2023-07-08T07:05:56;4.88;;;3.80;;
16179;SDS011;8196;49.428;10.906;2023-07-08T07:08:23;7.73;;;4.30;;
16179;SDS011;8196;49.428;10.906;2023-07-08T07:10:51;5.20;;;3.80;;
16179;SDS011;8196;49.428;10.906;2023-07-08T07:13:18;6.87;;;4.33;;
16179;SDS011;8196;49.428;10.906;2023-07-08T07:15:47;6.20;;;4.40;;
16179;SDS011;8196;49.428;10.906;2023-07-08T07:18:17;5.80;;;4.07;;
16179;SDS011;8196;49.428;10.906;2023-07-08T07:20:48;4.40;;;4.00;;
16179;SDS011;8196;49.428;10.906;2023-07-08T07:23:16;5.93;;;4.20;;
16179;SDS011;8196;49.428;10.906;2023-07-08T07:25:45;6.28;;;4.68;;
16179;SDS011;8196;49.428;10.906;2023-07-08T07:28:14;5.00;;;4.00;;
16179;SDS011;8196;49.428;10.906;2023-07-08T07:30:43;5.53;;;4.35;;
16179;SDS011;8196;49.428;10.906;2023-07-08T07:33:10;5.25;;;4.20;;
16179;SDS011;8196;49.428;10.906;2023-07-08T07:35:45;4.95;;;3.95;;
16179;SDS011;8196;49.428;10.906;2023-07-08T07:38:13;5.20;;;4.03;;
16179;SDS011;8196;49.428;10.906;2023-07-08T07:40:41;5.77;;;3.90;;
16179;SDS011;8196;49.428;10.906;2023-07-08T07:43:09;4.82;;;3.70;;
16179;SDS011;8196;49.428;10.906;2023-07-08T07:45:36;5.45;;;4.15;;
16179;SDS011;8196;49.428;10.906;2023-07-08T07:48:03;4.70;;;3.50;;
16179;SDS011;8196;49.428;10.906;2023-07-08T07:50:31;5.35;;;3.58;;
16179;SDS011;8196;49.428;10.906;2023-07-08T07:52:58;4.93;;;3.88;;
16179;SDS011;8196;49.428;10.906;2023-07-08T07:55:25;4.18;;;3.75;;
16179;SDS011;8196;49.428;10.906;2023-07-08T07:57:52;6.05;;;4.25;;
16179;SDS011;8196;49.428;10.906;2023-07-08T08:00:20;4.50;;;4.03;;
16179;SDS011;8196;49.428;10.906;2023-07-08T08:02:47;6.07;;;4.05;;
16179;SDS011;8196;49.428;10.906;2023-07-08T08:05:14;6.03;;;3.77;;
16179;SDS011;8196;49.428;10.906;2023-07-08T08:07:42;4.00;;;3.60;;
16179;SDS011;8196;49.428;10.906;2023-07-08T08:10:09;7.70;;;3.93;;
16179;SDS011;8196;49.428;10.906;2023-07-08T08:12:36;5.13;;;3.92;;
16179;SDS011;8196;49.428;10.906;2023-07-08T08:15:19;5.32;;;3.85;;
16179;SDS011;8196;49.428;10.906;2023-07-08T08:17:46;4.47;;;3.70;;
16179;SDS011;8196;49.428;10.906;2023-07-08T08:20:15;5.38;;;4.05;;
16179;SDS011;8196;49.428;10.906;2023-07-08T08:22:43;4.18;;;3.60;;
16179;SDS011;8196;49.428;10.906;2023-07-08T08:25:10;6.68;;;3.90;;
16179;SDS011;8196;49.428;10.906;2023-07-08T08:27:37;4.10;;;3.30;;
16179;SDS011;8196;49.428;10.906;2023-07-08T08:30:04;6.78;;;3.60;;
16179;SDS011;8196;49.428;10.906;2023-07-08T08:32:32;5.30;;;3.45;;
16179;SDS011;8196;49.428;10.906;2023-07-08T08:34:59;4.60;;;3.65;;
16179;SDS011;8196;49.428;10.906;2023-07-08T08:37:28;5.70;;;3.65;;
16179;SDS011;8196;49.428;10.906;2023-07-08T08:39:55;4.30;;;3.60;;
16179;SDS011;8196;49.428;10.906;2023-07-08T08:44:49;4.63;;;4.05;;
16179;SDS011;8196;49.428;10.906;2023-07-08T08:49:44;5.85;;;3.70;;
16179;SDS011;8196;49.428;10.906;2023-07-08T08:52:14;4.80;;;3.60;;
16179;SDS011;8196;49.428;10.906;2023-07-08T08:54:41;3.90;;;3.50;;
16179;SDS011;8196;49.428;10.906;2023-07-08T09:04:58;4.00;;;3.50;;
16179;SDS011;8196;49.428;10.906;2023-07-08T09:07:28;5.20;;;3.45;;
16179;SDS011;8196;49.428;10.906;2023-07-08T09:12:25;4.28;;;3.60;;
16179;SDS011;8196;49.428;10.906;2023-07-08T09:14:53;4.27;;;3.37;;
16179;SDS011;8196;49.428;10.906;2023-07-08T09:17:22;4.20;;;3.28;;
16179;SDS011;8196;49.428;10.906;2023-07-08T09:22:23;4.25;;;3.40;;
16179;SDS011;8196;49.428;10.906;2023-07-08T09:27:40;3.67;;;3.20;;
16179;SDS011;8196;49.428;10.906;2023-07-08T09:30:10;3.42;;;3.13;;
16179;SDS011;8196;49.428;10.906;2023-07-08T09:32:40;4.50;;;3.33;;
16179;SDS011;8196;49.428;10.906;2023-07-08T09:35:07;4.18;;;3.45;;
16179;SDS011;8196;49.428;10.906;2023-07-08T09:37:36;5.07;;;3.35;;
16179;SDS011;8196;49.428;10.906;2023-07-08T09:40:09;4.90;;;3.15;;
16179;SDS011;8196;49.428;10.906;2023-07-08T09:42:41;5.10;;;3.45;;
16179;SDS011;8196;49.428;10.906;2023-07-08T09:45:12;4.50;;;3.50;;
16179;SDS011;8196;49.428;10.906;2023-07-08T09:47:39;3.50;;;3.20;;
16179;SDS011;8196;49.428;10.906;2023-07-08T09:50:15;4.23;;;3.43;;
16179;SDS011;8196;49.428;10.906;2023-07-08T09:52:44;3.73;;;3.33;;
16179;SDS011;8196;49.428;10.906;2023-07-08T09:55:12;4.80;;;3.30;;
16179;SDS011;8196;49.428;10.906;2023-07-08T09:57:39;4.78;;;3.90;;
16179;SDS011;8196;49.428;10.906;2023-07-08T10:00:08;5.05;;;3.38;;
16179;SDS011;8196;49.428;10.906;2023-07-08T10:02:39;4.68;;;3.50;;
16179;SDS011;8196;49.428;10.906;2023-07-08T10:05:12;4.10;;;3.20;;
16179;SDS011;8196;49.428;10.906;2023-07-08T10:07:40;3.53;;;3.13;;
16179;SDS011;8196;49.428;10.906;2023-07-08T10:10:09;4.83;;;3.40;;
16179;SDS011;8196;49.428;10.906;2023-07-08T10:12:41;4.32;;;3.30;;
16179;SDS011;8196;49.428;10.906;2023-07-08T10:15:21;3.78;;;3.47;;
16179;SDS011;8196;49.428;10.906;2023-07-08T10:17:49;4.45;;;3.60;;
16179;SDS011;8196;49.428;10.906;2023-07-08T10:20:16;4.40;;;3.80;;
16179;SDS011;8196;49.428;10.906;2023-07-08T10:22:47;4.15;;;3.60;;
16179;SDS011;8196;49.428;10.906;2023-07-08T10:25:24;4.32;;;3.67;;
16179;SDS011;8196;49.428;10.906;2023-07-08T10:30:22;4.03;;;3.60;;
16179;SDS011;8196;49.428;10.906;2023-07-08T10:35:36;4.80;;;3.72;;
16179;SDS011;8196;49.428;10.906;2023-07-08T10:40:53;3.88;;;3.58;;
16179;SDS011;8196;49.428;10.906;2023-07-08T10:43:28;4.55;;;3.83;;
16179;SDS011;8196;49.428;10.906;2023-07-08T10:54:06;4.82;;;3.85;;
16179;SDS011;8196;49.428;10.906;2023-07-08T10:56:41;4.60;;;4.20;;
16179;SDS011;8196;49.428;10.906;2023-07-08T10:59:23;4.35;;;3.90;;
16179;SDS011;8196;49.428;10.906;2023-07-08T11:04:46;4.55;;;4.15;;
16179;SDS011;8196;49.428;10.906;2023-07-08T11:07:19;5.00;;;4.50;;
16179;SDS011;8196;49.428;10.906;2023-07-08T11:09:51;4.30;;;3.90;;
16179;SDS011;8196;49.428;10.906;2023-07-08T11:14:49;4.55;;;4.15;;
16179;SDS011;8196;49.428;10.906;2023-07-08T11:19:48;6.53;;;4.25;;
16179;SDS011;8196;49.428;10.906;2023-07-08T11:22:15;4.63;;;4.22;;
16179;SDS011;8196;49.428;10.906;2023-07-08T11:24:48;4.38;;;3.97;;
16179;SDS011;8196;49.428;10.906;2023-07-08T11:27:19;4.63;;;4.22;;
16179;SDS011;8196;49.428;10.906;2023-07-08T11:32:38;4.43;;;4.03;;
16179;SDS011;8196;49.428;10.906;2023-07-08T11:35:06;4.47;;;3.80;;
16179;SDS011;8196;49.428;10.906;2023-07-08T11:37:40;4.15;;;3.75;;
16179;SDS011;8196;49.428;10.906;2023-07-08T11:40:08;3.90;;;3.47;;
16179;SDS011;8196;49.428;10.906;2023-07-08T11:42:40;4.05;;;3.65;;
16179;SDS011;8196;49.428;10.906;2023-07-08T11:47:44;4.47;;;4.00;;
16179;SDS011;8196;49.428;10.906;2023-07-08T11:50:20;5.25;;;3.70;;
16179;SDS011;8196;49.428;10.906;2023-07-08T11:52:58;4.30;;;3.90;;
16179;SDS011;8196;49.428;10.906;2023-07-08T11:55:28;4.18;;;3.78;;
16179;SDS011;8196;49.428;10.906;2023-07-08T11:58:08;4.18;;;3.67;;
16179;SDS011;8196;49.428;10.906;2023-07-08T12:00:36;4.67;;;3.60;;
16179;SDS011;8196;49.428;10.906;2023-07-08T12:03:12;5.15;;;3.70;;
16179;SDS011;8196;49.428;10.906;2023-07-08T12:05:44;4.05;;;3.65;;
16179;SDS011;8196;49.428;10.906;2023-07-08T12:08:13;4.50;;;4.10;;
16179;SDS011;8196;49.428;10.906;2023-07-08T12:10:41;5.13;;;4.30;;
16179;SDS011;8196;49.428;10.906;2023-07-08T12:13:13;3.90;;;3.60;;
16179;SDS011;8196;49.428;10.906;2023-07-08T12:15:41;4.60;;;4.20;;
16179;SDS011;8196;49.428;10.906;2023-07-08T12:20:36;4.22;;;3.80;;
16179;SDS011;8196;49.428;10.906;2023-07-08T12:23:09;4.30;;;3.90;;
16179;SDS011;8196;49.428;10.906;2023-07-08T12:25:37;4.63;;;4.18;;
16179;SDS011;8196;49.428;10.906;2023-07-08T12:28:04;4.70;;;4.30;;
16179;SDS011;8196;49.428;10.906;2023-07-08T12:30:32;5.03;;;4.30;;
16179;SDS011;8196;49.428;10.906;2023-07-08T12:33:00;4.80;;;4.32;;
16179;SDS011;8196;49.428;10.906;2023-07-08T12:35:28;4.10;;;3.70;;
16179;SDS011;8196;49.428;10.906;2023-07-08T12:37:58;6.10;;;3.83;;
16179;SDS011;8196;49.428;10.906;2023-07-08T12:40:27;4.30;;;3.90;;
16179;SDS011;8196;49.428;10.906;2023-07-08T12:42:55;4.93;;;4.20;;
16179;SDS011;8196;49.428;10.906;2023-07-08T12:45:24;4.88;;;4.18;;
16179;SDS011;8196;49.428;10.906;2023-07-08T12:47:51;5.00;;;4.20;;
16179;SDS011;8196;49.428;10.906;2023-07-08T12:50:22;4.45;;;4.07;;
16179;SDS011;8196;49.428;10.906;2023-07-08T12:52:49;4.40;;;4.00;;
16179;SDS011;8196;49.428;10.906;2023-07-08T12:55:16;5.90;;;4.13;;
16179;SDS011;8196;49.428;10.906;2023-07-08T12:57:47;4.13;;;3.73;;
16179;SDS011;8196;49.428;10.906;2023-07-08T13:00:16;4.93;;;4.20;;
16179;SDS011;8196;49.428;10.906;2023-07-08T13:02:45;4.60;;;4.20;;
16179;SDS011;8196;49.428;10.906;2023-07-08T13:05:14;5.47;;;3.95;;
16179;SDS011;8196;49.428;10.906;2023-07-08T13:07:41;4.83;;;4.00;;
16179;SDS011;8196;49.428;10.906;2023-07-08T13:10:19;4.55;;;3.80;;
16179;SDS011;8196;49.428;10.906;2023-07-08T13:12:47;4.30;;;3.90;;
16179;SDS011;8196;49.428;10.906;2023-07-08T13:15:19;4.93;;;3.90;;
16179;SDS011;8196;49.428;10.906;2023-07-08T13:17:47;4.60;;;3.80;;
16179;SDS011;8196;49.428;10.906;2023-07-08T13:20:15;5.40;;;3.97;;
16179;SDS011;8196;49.428;10.906;2023-07-08T13:22:46;4.32;;;3.92;;
16179;SDS011;8196;49.428;10.906;2023-07-08T13:25:14;4.38;;;3.78;;
16179;SDS011;8196;49.428;10.906;2023-07-08T13:28:02;4.78;;;3.70;;
16179;SDS011;8196;49.428;10.906;2023-07-08T13:32:58;4.32;;;3.70;;
16179;SDS011;8196;49.428;10.906;2023-07-08T13:35:28;4.93;;;3.80;;
16179;SDS011;8196;49.428;10.906;2023-07-08T13:38:00;3.92;;;3.53;;
16179;SDS011;8196;49.428;10.906;2023-07-08T13:40:28;5.07;;;3.75;;
16179;SDS011;8196;49.428;10.906;2023-07-08T13:42:56;6.05;;;3.75;;
16179;SDS011;8196;49.428;10.906;2023-07-08T13:45:26;4.53;;;3.78;;
16179;SDS011;8196;49.428;10.906;2023-07-08T13:47:57;4.38;;;3.95;;
16179;SDS011;8196;49.428;10.906;2023-07-08T13:50:26;4.78;;;3.75;;
16179;SDS011;8196;49.428;10.906;2023-07-08T13:52:55;4.45;;;3.53;;
16179;SDS011;8196;49.428;10.906;2023-07-08T13:55:22;4.63;;;3.65;;
16179;SDS011;8196;49.428;10.906;2023-07-08T13:57:58;4.00;;;3.60;;
16179;SDS011;8196;49.428;10.906;2023-07-08T14:00:28;5.53;;;4.10;;
16179;SDS011;8196;49.428;10.906;2023-07-08T14:02:56;5.00;;;3.80;;
16179;SDS011;8196;49.428;10.906;2023-07-08T14:05:23;4.50;;;4.10;;
16179;SDS011;8196;49.428;10.906;2023-07-08T14:07:51;4.13;;;3.72;;
16179;SDS011;8196;49.428;10.906;2023-07-08T14:10:18;4.63;;;4.20;;
16179;SDS011;8196;49.428;10.906;2023-07-08T14:12:45;4.53;;;4.05;;
16179;SDS011;8196;49.428;10.906;2023-07-08T14:15:12;4.28;;;3.88;;
16179;SDS011;8196;49.428;10.906;2023-07-08T14:17:40;5.32;;;3.92;;
16179;SDS011;8196;49.428;10.906;2023-07-08T14:20:11;4.80;;;4.30;;
16179;SDS011;8196;49.428;10.906;2023-07-08T14:22:39;4.53;;;3.83;;
16179;SDS011;8196;49.428;10.906;2023-07-08T14:25:07;6.80;;;4.07;;
16179;SDS011;8196;49.428;10.906;2023-07-08T14:27:36;5.25;;;3.90;;
16179;SDS011;8196;49.428;10.906;2023-07-08T14:30:03;4.32;;;3.92;;
16179;SDS011;8196;49.428;10.906;2023-07-08T14:32:30;4.18;;;3.58;;
16179;SDS011;8196;49.428;10.906;2023-07-08T14:35:12;4.20;;;3.75;;
16179;SDS011;8196;49.428;10.906;2023-07-08T14:37:41;4.40;;;4.00;;
16179;SDS011;8196;49.428;10.906;2023-07-08T14:40:12;4.35;;;3.78;;
16179;SDS011;8196;49.428;10.906;2023-07-08T14:42:45;4.35;;;3.70;;
16179;SDS011;8196;49.428;10.906;2023-07-08T14:45:15;5.95;;;3.60;;
16179;SDS011;8196;49.428;10.906;2023-07-08T14:47:42;4.55;;;3.72;;
16179;SDS011;8196;49.428;10.906;2023-07-08T14:50:13;5.07;;;3.87;;
16179;SDS011;8196;49.428;10.906;2023-07-08T14:52:41;4.32;;;3.92;;
16179;SDS011;8196;49.428;10.906;2023-07-08T14:55:08;4.60;;;3.90;;
16179;SDS011;8196;49.428;10.906;2023-07-08T14:57:41;5.80;;;4.10;;
16179;SDS011;8196;49.428;10.906;2023-07-08T15:00:10;4.03;;;3.70;;
16179;SDS011;8196;49.428;10.906;2023-07-08T15:02:39;4.63;;;4.22;;
16179;SDS011;8196;49.428;10.906;2023-07-08T15:05:11;4.70;;;4.20;;
16179;SDS011;8196;49.428;10.906;2023-07-08T15:07:40;5.17;;;4.30;;
16179;SDS011;8196;49.428;10.906;2023-07-08T15:10:07;4.70;;;4.30;;
16179;SDS011;8196;49.428;10.906;2023-07-08T15:12:34;4.73;;;4.13;;
16179;SDS011;8196;49.428;10.906;2023-07-08T15:15:02;4.28;;;3.88;;
16179;SDS011;8196;49.428;10.906;2023-07-08T15:17:29;4.63;;;4.18;;
16179;SDS011;8196;49.428;10.906;2023-07-08T15:19:56;4.72;;;4.32;;
16179;SDS011;8196;49.428;10.906;2023-07-08T15:22:23;4.53;;;4.13;;
16179;SDS011;8196;49.428;10.906;2023-07-08T15:24:50;6.33;;;4.10;;
16179;SDS011;8196;49.428;10.906;2023-07-08T15:27:18;5.45;;;4.18;;
16179;SDS011;8196;49.428;10.906;2023-07-08T15:29:46;4.50;;;4.10;;
16179;SDS011;8196;49.428;10.906;2023-07-08T15:32:14;4.25;;;3.85;;
16179;SDS011;8196;49.428;10.906;2023-07-08T15:35:04;5.57;;;4.40;;
16179;SDS011;8196;49.428;10.906;2023-07-08T15:37:31;4.75;;;4.20;;
16179;SDS011;8196;49.428;10.906;2023-07-08T15:39:58;4.30;;;3.90;;
16179;SDS011;8196;49.428;10.906;2023-07-08T15:42:25;5.72;;;3.97;;
16179;SDS011;8196;49.428;10.906;2023-07-08T15:44:52;6.30;;;4.18;;
16179;SDS011;8196;49.428;10.906;2023-07-08T15:47:20;4.80;;;4.30;;
16179;SDS011;8196;49.428;10.906;2023-07-08T15:49:48;4.82;;;4.35;;
16179;SDS011;8196;49.428;10.906;2023-07-08T15:52:15;5.43;;;4.13;;
16179;SDS011;8196;49.428;10.906;2023-07-08T15:54:42;4.93;;;4.45;;
16179;SDS011;8196;49.428;10.906;2023-07-08T15:57:09;5.60;;;3.80;;